sensor_id;sensor_type;location;lat;lon;timestamp;temperature;humidity
21033;DHT22;10675;47.976;7.824;2023-10-13T00:01:01;21.80;49.90
21033;DHT22;10675;47.976;7.824;2023-10-13T00:03:30;21.80;49.90
21033;DHT22;10675;47.976;7.824;2023-10-13T00:05:58;21.90;48.60
21033;DHT22;10675;47.976;7.824;2023-10-13T00:08:28;21.90;49.90
21033;DHT22;10675;47.976;7.824;2023-10-13T00:10:55;21.80;50.40
21033;DHT22;10675;47.976;7.824;2023-10-13T00:13:26;21.70;50.40
21033;DHT22;10675;47.976;7.824;2023-10-13T00:15:52;21.70;50.00
21033;DHT22;10675;47.976;7.824;2023-10-13T00:18:20;21.70;50.90
21033;DHT22;10675;47.976;7.824;2023-10-13T00:20:46;21.70;50.10
21033;DHT22;10675;47.976;7.824;2023-10-13T00:23:16;21.60;51.60
21033;DHT22;10675;47.976;7.824;2023-10-13T00:25:50;21.50;50.80
21033;DHT22;10675;47.976;7.824;2023-10-13T00:28:19;21.60;49.90
21033;DHT22;10675;47.976;7.824;2023-10-13T00:30:52;21.70;50.50
21033;DHT22;10675;47.976;7.824;2023-10-13T00:33:24;21.50;51.30
21033;DHT22;10675;47.976;7.824;2023-10-13T00:35:51;21.40;52.40
21033;DHT22;10675;47.976;7.824;2023-10-13T00:38:18;21.30;53.70
21033;DHT22;10675;47.976;7.824;2023-10-13T00:40:45;21.10;53.90
21033;DHT22;10675;47.976;7.824;2023-10-13T00:43:18;21.00;54.50
21033;DHT22;10675;47.976;7.824;2023-10-13T00:45:47;21.00;54.30
21033;DHT22;10675;47.976;7.824;2023-10-13T00:48:38;20.90;54.90
21033;DHT22;10675;47.976;7.824;2023-10-13T00:51:19;20.90;54.60
21033;DHT22;10675;47.976;7.824;2023-10-13T00:54:05;21.00;52.00
21033;DHT22;10675;47.976;7.824;2023-10-13T00:56:38;21.10;52.50
21033;DHT22;10675;47.976;7.824;2023-10-13T00:59:08;21.20;51.80
21033;DHT22;10675;47.976;7.824;2023-10-13T01:01:35;21.40;50.50
21033;DHT22;10675;47.976;7.824;2023-10-13T01:04:02;21.40;50.40
21033;DHT22;10675;47.976;7.824;2023-10-13T01:06:30;21.50;50.20
21033;DHT22;10675;47.976;7.824;2023-10-13T01:11:23;21.40;52.00
21033;DHT22;10675;47.976;7.824;2023-10-13T01:13:49;21.20;52.80
21033;DHT22;10675;47.976;7.824;2023-10-13T01:16:19;21.10;52.30
21033;DHT22;10675;47.976;7.824;2023-10-13T01:18:55;21.10;52.70
21033;DHT22;10675;47.976;7.824;2023-10-13T01:21:25;21.30;51.10
21033;DHT22;10675;47.976;7.824;2023-10-13T01:23:53;21.40;50.30
21033;DHT22;10675;47.976;7.824;2023-10-13T01:26:19;21.70;48.50
21033;DHT22;10675;47.976;7.824;2023-10-13T01:28:56;21.80;48.30
21033;DHT22;10675;47.976;7.824;2023-10-13T01:31:21;21.90;47.90
21033;DHT22;10675;47.976;7.824;2023-10-13T01:33:53;21.80;48.70
21033;DHT22;10675;47.976;7.824;2023-10-13T01:36:22;21.80;48.80
21033;DHT22;10675;47.976;7.824;2023-10-13T01:38:49;21.80;49.00
21033;DHT22;10675;47.976;7.824;2023-10-13T01:41:15;21.80;49.20
21033;DHT22;10675;47.976;7.824;2023-10-13T01:43:41;21.70;49.20
21033;DHT22;10675;47.976;7.824;2023-10-13T01:46:08;21.60;49.80
21033;DHT22;10675;47.976;7.824;2023-10-13T01:48:34;21.30;51.20
21033;DHT22;10675;47.976;7.824;2023-10-13T01:51:04;21.20;52.00
21033;DHT22;10675;47.976;7.824;2023-10-13T01:53:31;21.00;52.80
21033;DHT22;10675;47.976;7.824;2023-10-13T01:55:56;20.80;53.80
21033;DHT22;10675;47.976;7.824;2023-10-13T01:58:23;20.60;54.30
21033;DHT22;10675;47.976;7.824;2023-10-13T02:00:51;20.40;55.50
21033;DHT22;10675;47.976;7.824;2023-10-13T02:03:17;20.20;56.20
21033;DHT22;10675;47.976;7.824;2023-10-13T02:05:43;20.00;56.70
21033;DHT22;10675;47.976;7.824;2023-10-13T02:08:21;19.90;57.90
21033;DHT22;10675;47.976;7.824;2023-10-13T02:10:58;19.80;57.50
21033;DHT22;10675;47.976;7.824;2023-10-13T02:13:26;19.70;57.60
21033;DHT22;10675;47.976;7.824;2023-10-13T02:15:58;19.60;57.90
21033;DHT22;10675;47.976;7.824;2023-10-13T02:18:29;19.50;58.20
21033;DHT22;10675;47.976;7.824;2023-10-13T02:21:07;19.50;58.80
21033;DHT22;10675;47.976;7.824;2023-10-13T02:23:39;19.50;59.40
21033;DHT22;10675;47.976;7.824;2023-10-13T02:26:10;19.40;60.50
21033;DHT22;10675;47.976;7.824;2023-10-13T02:28:38;19.30;60.70
21033;DHT22;10675;47.976;7.824;2023-10-13T02:31:04;19.20;60.30
21033;DHT22;10675;47.976;7.824;2023-10-13T02:33:30;19.20;61.00
21033;DHT22;10675;47.976;7.824;2023-10-13T02:35:57;19.10;61.60
21033;DHT22;10675;47.976;7.824;2023-10-13T02:38:23;19.10;62.10
21033;DHT22;10675;47.976;7.824;2023-10-13T02:41:13;18.90;61.90
21033;DHT22;10675;47.976;7.824;2023-10-13T02:43:44;18.70;62.90
21033;DHT22;10675;47.976;7.824;2023-10-13T02:46:10;18.50;63.90
21033;DHT22;10675;47.976;7.824;2023-10-13T02:48:35;18.30;64.50
21033;DHT22;10675;47.976;7.824;2023-10-13T02:51:08;18.20;64.80
21033;DHT22;10675;47.976;7.824;2023-10-13T02:53:44;18.20;64.80
21033;DHT22;10675;47.976;7.824;2023-10-13T02:56:17;18.20;64.70
21033;DHT22;10675;47.976;7.824;2023-10-13T02:58:47;18.20;64.60
21033;DHT22;10675;47.976;7.824;2023-10-13T03:01:19;18.20;64.30
21033;DHT22;10675;47.976;7.824;2023-10-13T03:03:47;18.20;64.40
21033;DHT22;10675;47.976;7.824;2023-10-13T03:06:16;18.10;64.60
21033;DHT22;10675;47.976;7.824;2023-10-13T03:08:42;18.00;64.90
21033;DHT22;10675;47.976;7.824;2023-10-13T03:11:09;18.00;65.00
21033;DHT22;10675;47.976;7.824;2023-10-13T03:13:35;18.00;65.30
21033;DHT22;10675;47.976;7.824;2023-10-13T03:16:11;17.90;65.50
21033;DHT22;10675;47.976;7.824;2023-10-13T03:18:36;17.80;65.70
21033;DHT22;10675;47.976;7.824;2023-10-13T03:21:03;17.90;65.70
21033;DHT22;10675;47.976;7.824;2023-10-13T03:23:29;17.90;65.70
21033;DHT22;10675;47.976;7.824;2023-10-13T03:26:09;17.90;65.70
21033;DHT22;10675;47.976;7.824;2023-10-13T03:28:35;17.90;65.90
21033;DHT22;10675;47.976;7.824;2023-10-13T03:31:03;18.00;66.10
21033;DHT22;10675;47.976;7.824;2023-10-13T03:33:29;18.00;66.70
21033;DHT22;10675;47.976;7.824;2023-10-13T03:35:58;17.90;66.30
21033;DHT22;10675;47.976;7.824;2023-10-13T03:38:31;17.80;66.90
21033;DHT22;10675;47.976;7.824;2023-10-13T03:41:02;17.80;67.60
21033;DHT22;10675;47.976;7.824;2023-10-13T03:43:37;17.70;68.00
21033;DHT22;10675;47.976;7.824;2023-10-13T03:46:11;17.70;68.60
21033;DHT22;10675;47.976;7.824;2023-10-13T03:48:36;17.60;69.90
21033;DHT22;10675;47.976;7.824;2023-10-13T03:51:17;17.60;70.60
21033;DHT22;10675;47.976;7.824;2023-10-13T03:53:43;17.50;71.30
21033;DHT22;10675;47.976;7.824;2023-10-13T03:56:25;17.40;71.50
21033;DHT22;10675;47.976;7.824;2023-10-13T03:58:52;17.30;72.40
21033;DHT22;10675;47.976;7.824;2023-10-13T04:01:20;17.10;72.80
21033;DHT22;10675;47.976;7.824;2023-10-13T04:03:57;17.10;74.10
21033;DHT22;10675;47.976;7.824;2023-10-13T04:06:31;16.90;74.80
21033;DHT22;10675;47.976;7.824;2023-10-13T04:09:18;16.90;75.70
21033;DHT22;10675;47.976;7.824;2023-10-13T04:12:01;16.70;76.10
21033;DHT22;10675;47.976;7.824;2023-10-13T04:14:52;16.60;76.60
21033;DHT22;10675;47.976;7.824;2023-10-13T04:17:38;16.50;76.80
21033;DHT22;10675;47.976;7.824;2023-10-13T04:20:09;16.40;78.30
21033;DHT22;10675;47.976;7.824;2023-10-13T04:22:42;16.30;78.60
21033;DHT22;10675;47.976;7.824;2023-10-13T04:25:24;16.20;78.90
21033;DHT22;10675;47.976;7.824;2023-10-13T04:28:18;16.20;79.40
21033;DHT22;10675;47.976;7.824;2023-10-13T04:31:19;16.10;80.50
21033;DHT22;10675;47.976;7.824;2023-10-13T04:34:11;16.10;81.80
21033;DHT22;10675;47.976;7.824;2023-10-13T04:36:44;16.10;81.90
21033;DHT22;10675;47.976;7.824;2023-10-13T04:39:20;16.00;82.90
21033;DHT22;10675;47.976;7.824;2023-10-13T04:41:54;15.90;85.10
21033;DHT22;10675;47.976;7.824;2023-10-13T04:44:20;15.90;84.80
21033;DHT22;10675;47.976;7.824;2023-10-13T04:46:56;15.80;85.00
21033;DHT22;10675;47.976;7.824;2023-10-13T04:49:25;15.80;85.00
21033;DHT22;10675;47.976;7.824;2023-10-13T04:51:55;15.70;85.50
21033;DHT22;10675;47.976;7.824;2023-10-13T04:54:28;15.60;86.20
21033;DHT22;10675;47.976;7.824;2023-10-13T04:57:13;15.50;86.70
21033;DHT22;10675;47.976;7.824;2023-10-13T04:59:48;15.60;85.90
21033;DHT22;10675;47.976;7.824;2023-10-13T05:02:33;15.60;87.00
21033;DHT22;10675;47.976;7.824;2023-10-13T05:05:12;15.50;87.00
21033;DHT22;10675;47.976;7.824;2023-10-13T05:07:44;15.50;87.40
21033;DHT22;10675;47.976;7.824;2023-10-13T05:10:29;15.50;87.20
21033;DHT22;10675;47.976;7.824;2023-10-13T05:13:14;15.50;88.40
21033;DHT22;10675;47.976;7.824;2023-10-13T05:15:57;15.50;88.20
21033;DHT22;10675;47.976;7.824;2023-10-13T05:18:42;15.60;88.90
21033;DHT22;10675;47.976;7.824;2023-10-13T05:21:26;15.40;89.10
21033;DHT22;10675;47.976;7.824;2023-10-13T05:24:10;15.30;89.00
21033;DHT22;10675;47.976;7.824;2023-10-13T05:26:54;15.20;89.30
21033;DHT22;10675;47.976;7.824;2023-10-13T05:29:39;15.10;90.30
21033;DHT22;10675;47.976;7.824;2023-10-13T05:32:24;14.90;90.30
21033;DHT22;10675;47.976;7.824;2023-10-13T05:35:08;14.90;90.50
21033;DHT22;10675;47.976;7.824;2023-10-13T05:37:52;15.00;92.00
21033;DHT22;10675;47.976;7.824;2023-10-13T05:40:36;15.00;91.50
21033;DHT22;10675;47.976;7.824;2023-10-13T05:43:21;15.10;92.00
21033;DHT22;10675;47.976;7.824;2023-10-13T05:46:05;15.10;92.10
21033;DHT22;10675;47.976;7.824;2023-10-13T05:48:49;15.00;92.20
21033;DHT22;10675;47.976;7.824;2023-10-13T05:51:25;15.00;92.20
21033;DHT22;10675;47.976;7.824;2023-10-13T05:54:10;14.80;91.80
21033;DHT22;10675;47.976;7.824;2023-10-13T05:59:27;14.80;92.10
21033;DHT22;10675;47.976;7.824;2023-10-13T06:02:14;14.80;91.80
21033;DHT22;10675;47.976;7.824;2023-10-13T06:05:01;15.00;93.30
21033;DHT22;10675;47.976;7.824;2023-10-13T06:07:45;14.90;92.50
21033;DHT22;10675;47.976;7.824;2023-10-13T06:10:29;14.90;92.70
21033;DHT22;10675;47.976;7.824;2023-10-13T06:13:13;14.90;92.40
21033;DHT22;10675;47.976;7.824;2023-10-13T06:15:57;14.90;92.70
21033;DHT22;10675;47.976;7.824;2023-10-13T06:18:41;15.00;93.10
21033;DHT22;10675;47.976;7.824;2023-10-13T06:21:25;15.10;92.50
21033;DHT22;10675;47.976;7.824;2023-10-13T06:24:09;15.20;93.20
21033;DHT22;10675;47.976;7.824;2023-10-13T06:27:07;15.30;93.10
21033;DHT22;10675;47.976;7.824;2023-10-13T06:29:51;15.20;93.10
21033;DHT22;10675;47.976;7.824;2023-10-13T06:32:22;15.10;92.60
21033;DHT22;10675;47.976;7.824;2023-10-13T06:34:54;15.10;92.80
21033;DHT22;10675;47.976;7.824;2023-10-13T06:37:26;15.00;91.40
21033;DHT22;10675;47.976;7.824;2023-10-13T06:40:08;15.20;92.70
21033;DHT22;10675;47.976;7.824;2023-10-13T06:42:53;15.30;91.70
21033;DHT22;10675;47.976;7.824;2023-10-13T06:45:20;15.40;93.00
21033;DHT22;10675;47.976;7.824;2023-10-13T06:47:47;15.40;91.70
21033;DHT22;10675;47.976;7.824;2023-10-13T06:50:15;15.40;91.50
21033;DHT22;10675;47.976;7.824;2023-10-13T06:52:44;15.40;91.30
21033;DHT22;10675;47.976;7.824;2023-10-13T06:55:10;15.50;91.40
21033;DHT22;10675;47.976;7.824;2023-10-13T06:57:56;15.50;92.20
21033;DHT22;10675;47.976;7.824;2023-10-13T07:00:25;15.60;92.80
21033;DHT22;10675;47.976;7.824;2023-10-13T07:02:55;15.80;92.70
21033;DHT22;10675;47.976;7.824;2023-10-13T07:05:40;16.00;91.60
21033;DHT22;10675;47.976;7.824;2023-10-13T07:08:09;16.20;91.80
21033;DHT22;10675;47.976;7.824;2023-10-13T07:10:38;16.30;91.60
21033;DHT22;10675;47.976;7.824;2023-10-13T07:13:22;16.40;91.00
21033;DHT22;10675;47.976;7.824;2023-10-13T07:15:48;16.50;91.10
21033;DHT22;10675;47.976;7.824;2023-10-13T07:18:16;16.50;90.90
21033;DHT22;10675;47.976;7.824;2023-10-13T07:20:44;16.50;90.40
21033;DHT22;10675;47.976;7.824;2023-10-13T07:23:13;18.40;92.20
21033;DHT22;10675;47.976;7.824;2023-10-13T07:25:56;16.60;90.80
21033;DHT22;10675;47.976;7.824;2023-10-13T07:28:32;16.70;92.00
21033;DHT22;10675;47.976;7.824;2023-10-13T07:31:02;16.80;90.90
21033;DHT22;10675;47.976;7.824;2023-10-13T07:33:27;16.80;91.30
21033;DHT22;10675;47.976;7.824;2023-10-13T07:36:01;17.00;91.30
21033;DHT22;10675;47.976;7.824;2023-10-13T07:38:26;17.00;90.80
21033;DHT22;10675;47.976;7.824;2023-10-13T07:40:56;17.20;88.30
21033;DHT22;10675;47.976;7.824;2023-10-13T07:43:32;17.40;88.90
21033;DHT22;10675;47.976;7.824;2023-10-13T07:45:58;17.70;88.30
21033;DHT22;10675;47.976;7.824;2023-10-13T07:48:32;17.80;88.50
21033;DHT22;10675;47.976;7.824;2023-10-13T07:50:59;17.80;90.10
21033;DHT22;10675;47.976;7.824;2023-10-13T07:53:45;17.90;87.40
21033;DHT22;10675;47.976;7.824;2023-10-13T07:56:14;18.00;88.90
21033;DHT22;10675;47.976;7.824;2023-10-13T07:58:44;18.20;82.30
21033;DHT22;10675;47.976;7.824;2023-10-13T08:01:21;18.40;84.10
21033;DHT22;10675;47.976;7.824;2023-10-13T08:03:47;18.60;82.20
21033;DHT22;10675;47.976;7.824;2023-10-13T08:06:21;18.70;82.60
21033;DHT22;10675;47.976;7.824;2023-10-13T08:08:51;19.00;80.70
21033;DHT22;10675;47.976;7.824;2023-10-13T08:11:21;19.30;78.30
21033;DHT22;10675;47.976;7.824;2023-10-13T08:13:54;19.40;77.60
21033;DHT22;10675;47.976;7.824;2023-10-13T08:16:21;19.70;78.30
21033;DHT22;10675;47.976;7.824;2023-10-13T08:18:49;19.80;76.00
21033;DHT22;10675;47.976;7.824;2023-10-13T08:21:18;20.20;75.50
21033;DHT22;10675;47.976;7.824;2023-10-13T08:23:51;20.20;74.60
21033;DHT22;10675;47.976;7.824;2023-10-13T08:26:24;20.50;72.60
21033;DHT22;10675;47.976;7.824;2023-10-13T08:28:59;20.50;72.30
21033;DHT22;10675;47.976;7.824;2023-10-13T08:31:43;20.80;68.90
21033;DHT22;10675;47.976;7.824;2023-10-13T08:34:15;20.80;70.00
21033;DHT22;10675;47.976;7.824;2023-10-13T08:36:48;20.70;70.60
21033;DHT22;10675;47.976;7.824;2023-10-13T08:39:14;20.80;69.20
21033;DHT22;10675;47.976;7.824;2023-10-13T08:41:58;20.70;69.90
21033;DHT22;10675;47.976;7.824;2023-10-13T08:44:42;20.60;71.30
21033;DHT22;10675;47.976;7.824;2023-10-13T08:47:13;20.70;74.30
21033;DHT22;10675;47.976;7.824;2023-10-13T08:49:43;20.60;78.10
21033;DHT22;10675;47.976;7.824;2023-10-13T08:52:17;20.80;72.30
21033;DHT22;10675;47.976;7.824;2023-10-13T08:55:05;21.10;71.60
21033;DHT22;10675;47.976;7.824;2023-10-13T08:57:50;21.30;72.00
21033;DHT22;10675;47.976;7.824;2023-10-13T09:00:19;21.40;70.40
21033;DHT22;10675;47.976;7.824;2023-10-13T09:03:06;21.60;68.30
21033;DHT22;10675;47.976;7.824;2023-10-13T09:05:50;22.00;68.40
21033;DHT22;10675;47.976;7.824;2023-10-13T09:08:34;22.30;64.90
21033;DHT22;10675;47.976;7.824;2023-10-13T09:11:18;22.20;65.20
21033;DHT22;10675;47.976;7.824;2023-10-13T09:13:51;22.30;63.10
21033;DHT22;10675;47.976;7.824;2023-10-13T09:16:17;22.70;62.90
21033;DHT22;10675;47.976;7.824;2023-10-13T09:19:02;23.10;61.20
21033;DHT22;10675;47.976;7.824;2023-10-13T09:21:40;22.90;59.80
21033;DHT22;10675;47.976;7.824;2023-10-13T09:24:08;23.00;60.10
21033;DHT22;10675;47.976;7.824;2023-10-13T09:26:53;23.00;59.50
21033;DHT22;10675;47.976;7.824;2023-10-13T09:29:21;23.20;57.60
21033;DHT22;10675;47.976;7.824;2023-10-13T09:31:58;23.10;57.50
21033;DHT22;10675;47.976;7.824;2023-10-13T09:34:25;23.20;56.40
21033;DHT22;10675;47.976;7.824;2023-10-13T09:37:00;23.20;58.10
21033;DHT22;10675;47.976;7.824;2023-10-13T09:39:28;23.20;59.20
21033;DHT22;10675;47.976;7.824;2023-10-13T09:42:10;23.20;60.70
21033;DHT22;10675;47.976;7.824;2023-10-13T09:44:38;23.30;59.70
21033;DHT22;10675;47.976;7.824;2023-10-13T09:47:09;23.40;59.80
21033;DHT22;10675;47.976;7.824;2023-10-13T09:49:44;23.80;58.90
21033;DHT22;10675;47.976;7.824;2023-10-13T09:52:14;23.90;58.20
21033;DHT22;10675;47.976;7.824;2023-10-13T09:57:28;24.30;55.50
21033;DHT22;10675;47.976;7.824;2023-10-13T10:00:12;24.60;55.60
21033;DHT22;10675;47.976;7.824;2023-10-13T10:02:58;24.90;55.70
21033;DHT22;10675;47.976;7.824;2023-10-13T10:05:27;25.30;50.20
21033;DHT22;10675;47.976;7.824;2023-10-13T10:07:59;25.60;51.00
21033;DHT22;10675;47.976;7.824;2023-10-13T10:10:47;25.90;50.50
21033;DHT22;10675;47.976;7.824;2023-10-13T10:13:39;26.00;45.50
21033;DHT22;10675;47.976;7.824;2023-10-13T10:16:11;26.30;45.20
21033;DHT22;10675;47.976;7.824;2023-10-13T10:18:45;26.40;43.60
21033;DHT22;10675;47.976;7.824;2023-10-13T10:21:10;26.50;42.60
21033;DHT22;10675;47.976;7.824;2023-10-13T10:23:37;26.50;42.70
21033;DHT22;10675;47.976;7.824;2023-10-13T10:26:13;26.60;42.90
21033;DHT22;10675;47.976;7.824;2023-10-13T10:28:43;26.80;42.20
21033;DHT22;10675;47.976;7.824;2023-10-13T10:31:10;26.90;42.30
21033;DHT22;10675;47.976;7.824;2023-10-13T10:33:40;26.80;39.90
21033;DHT22;10675;47.976;7.824;2023-10-13T10:36:07;26.70;40.30
21033;DHT22;10675;47.976;7.824;2023-10-13T10:38:51;26.80;40.20
21033;DHT22;10675;47.976;7.824;2023-10-13T10:41:28;26.90;40.30
21033;DHT22;10675;47.976;7.824;2023-10-13T10:44:14;26.80;40.20
21033;DHT22;10675;47.976;7.824;2023-10-13T10:46:50;26.90;39.40
21033;DHT22;10675;47.976;7.824;2023-10-13T10:49:26;27.00;40.50
21033;DHT22;10675;47.976;7.824;2023-10-13T10:52:01;27.10;40.50
21033;DHT22;10675;47.976;7.824;2023-10-13T10:54:29;27.10;39.50
21033;DHT22;10675;47.976;7.824;2023-10-13T10:57:01;27.20;38.60
21033;DHT22;10675;47.976;7.824;2023-10-13T10:59:43;27.30;39.00
21033;DHT22;10675;47.976;7.824;2023-10-13T11:02:10;27.30;37.60
21033;DHT22;10675;47.976;7.824;2023-10-13T11:04:41;27.20;36.50
21033;DHT22;10675;47.976;7.824;2023-10-13T11:07:24;27.20;36.40
21033;DHT22;10675;47.976;7.824;2023-10-13T11:09:50;27.20;36.50
21033;DHT22;10675;47.976;7.824;2023-10-13T11:12:19;27.30;36.70
21033;DHT22;10675;47.976;7.824;2023-10-13T11:15:04;27.40;36.30
21033;DHT22;10675;47.976;7.824;2023-10-13T11:17:49;27.40;35.90
21033;DHT22;10675;47.976;7.824;2023-10-13T11:20:22;27.60;36.40
21033;DHT22;10675;47.976;7.824;2023-10-13T11:22:58;27.60;36.50
21033;DHT22;10675;47.976;7.824;2023-10-13T11:25:26;27.60;35.10
21033;DHT22;10675;47.976;7.824;2023-10-13T11:27:56;27.70;36.00
21033;DHT22;10675;47.976;7.824;2023-10-13T11:30:24;27.70;35.70
21033;DHT22;10675;47.976;7.824;2023-10-13T11:32:58;27.60;34.40
21033;DHT22;10675;47.976;7.824;2023-10-13T11:35:24;27.80;35.40
21033;DHT22;10675;47.976;7.824;2023-10-13T11:37:50;27.80;35.10
21033;DHT22;10675;47.976;7.824;2023-10-13T11:40:36;27.90;34.90
21033;DHT22;10675;47.976;7.824;2023-10-13T11:43:20;27.90;35.30
21033;DHT22;10675;47.976;7.824;2023-10-13T11:45:49;27.90;34.60
21033;DHT22;10675;47.976;7.824;2023-10-13T11:48:26;28.00;34.80
21033;DHT22;10675;47.976;7.824;2023-10-13T11:51:05;28.00;34.50
21033;DHT22;10675;47.976;7.824;2023-10-13T11:53:33;28.20;34.60
21033;DHT22;10675;47.976;7.824;2023-10-13T11:55:59;28.40;35.00
21033;DHT22;10675;47.976;7.824;2023-10-13T11:58:25;28.40;33.80
21033;DHT22;10675;47.976;7.824;2023-10-13T12:00:50;28.40;34.60
21033;DHT22;10675;47.976;7.824;2023-10-13T12:03:18;28.30;33.40
21033;DHT22;10675;47.976;7.824;2023-10-13T12:06:03;28.30;33.00
21033;DHT22;10675;47.976;7.824;2023-10-13T12:08:44;28.30;32.60
21033;DHT22;10675;47.976;7.824;2023-10-13T12:11:15;28.50;33.90
21033;DHT22;10675;47.976;7.824;2023-10-13T12:13:56;28.40;33.10
21033;DHT22;10675;47.976;7.824;2023-10-13T12:16:22;28.30;32.50
21033;DHT22;10675;47.976;7.824;2023-10-13T12:18:48;28.30;32.20
21033;DHT22;10675;47.976;7.824;2023-10-13T12:21:19;28.40;33.80
21033;DHT22;10675;47.976;7.824;2023-10-13T12:23:47;28.40;32.70
21033;DHT22;10675;47.976;7.824;2023-10-13T12:26:12;28.50;33.30
21033;DHT22;10675;47.976;7.824;2023-10-13T12:28:45;28.60;33.00
21033;DHT22;10675;47.976;7.824;2023-10-13T12:31:17;28.60;32.90
21033;DHT22;10675;47.976;7.824;2023-10-13T12:33:43;28.70;34.10
21033;DHT22;10675;47.976;7.824;2023-10-13T12:36:12;28.70;34.50
21033;DHT22;10675;47.976;7.824;2023-10-13T12:38:47;28.60;33.30
21033;DHT22;10675;47.976;7.824;2023-10-13T12:41:20;28.70;33.70
21033;DHT22;10675;47.976;7.824;2023-10-13T12:44:05;28.60;31.90
21033;DHT22;10675;47.976;7.824;2023-10-13T12:46:50;28.50;32.70
21033;DHT22;10675;47.976;7.824;2023-10-13T12:49:35;28.70;33.40
21033;DHT22;10675;47.976;7.824;2023-10-13T12:52:13;28.60;31.90
21033;DHT22;10675;47.976;7.824;2023-10-13T12:54:45;28.80;32.70
21033;DHT22;10675;47.976;7.824;2023-10-13T12:57:16;28.90;32.80
21033;DHT22;10675;47.976;7.824;2023-10-13T12:59:42;28.90;32.10
21033;DHT22;10675;47.976;7.824;2023-10-13T13:02:08;28.90;31.90
21033;DHT22;10675;47.976;7.824;2023-10-13T13:04:40;28.80;31.80
21033;DHT22;10675;47.976;7.824;2023-10-13T13:07:10;28.80;32.10
21033;DHT22;10675;47.976;7.824;2023-10-13T13:09:40;28.90;32.10
21033;DHT22;10675;47.976;7.824;2023-10-13T13:12:05;28.90;32.30
21033;DHT22;10675;47.976;7.824;2023-10-13T13:14:32;28.90;32.00
21033;DHT22;10675;47.976;7.824;2023-10-13T13:17:00;29.00;32.30
21033;DHT22;10675;47.976;7.824;2023-10-13T13:19:35;28.80;31.40
21033;DHT22;10675;47.976;7.824;2023-10-13T13:22:05;29.00;31.90
21033;DHT22;10675;47.976;7.824;2023-10-13T13:24:31;29.00;30.70
21033;DHT22;10675;47.976;7.824;2023-10-13T13:26:57;29.10;31.10
21033;DHT22;10675;47.976;7.824;2023-10-13T13:29:29;29.10;32.20
21033;DHT22;10675;47.976;7.824;2023-10-13T13:31:55;29.00;31.60
21033;DHT22;10675;47.976;7.824;2023-10-13T13:34:21;28.90;30.90
21033;DHT22;10675;47.976;7.824;2023-10-13T13:36:47;28.70;30.60
21033;DHT22;10675;47.976;7.824;2023-10-13T13:39:20;28.50;30.30
21033;DHT22;10675;47.976;7.824;2023-10-13T13:41:55;28.30;30.90
21033;DHT22;10675;47.976;7.824;2023-10-13T13:44:24;28.40;32.00
21033;DHT22;10675;47.976;7.824;2023-10-13T13:47:01;28.30;32.00
21033;DHT22;10675;47.976;7.824;2023-10-13T13:49:30;28.30;30.70
21033;DHT22;10675;47.976;7.824;2023-10-13T13:52:06;28.20;31.50
21033;DHT22;10675;47.976;7.824;2023-10-13T13:54:32;28.20;32.00
21033;DHT22;10675;47.976;7.824;2023-10-13T13:56:58;28.10;32.00
21033;DHT22;10675;47.976;7.824;2023-10-13T13:59:23;28.20;32.90
21033;DHT22;10675;47.976;7.824;2023-10-13T14:01:49;28.30;32.70
21033;DHT22;10675;47.976;7.824;2023-10-13T14:04:18;28.20;31.80
21033;DHT22;10675;47.976;7.824;2023-10-13T14:06:44;28.30;33.70
21033;DHT22;10675;47.976;7.824;2023-10-13T14:09:11;28.20;33.50
21033;DHT22;10675;47.976;7.824;2023-10-13T14:11:55;28.20;32.00
21033;DHT22;10675;47.976;7.824;2023-10-13T14:14:39;28.20;31.90
21033;DHT22;10675;47.976;7.824;2023-10-13T14:17:12;28.20;32.20
21033;DHT22;10675;47.976;7.824;2023-10-13T14:19:38;28.30;31.70
21033;DHT22;10675;47.976;7.824;2023-10-13T14:22:09;28.20;30.90
21033;DHT22;10675;47.976;7.824;2023-10-13T14:24:37;28.20;31.10
21033;DHT22;10675;47.976;7.824;2023-10-13T14:27:09;28.20;31.60
21033;DHT22;10675;47.976;7.824;2023-10-13T14:29:41;28.20;30.50
21033;DHT22;10675;47.976;7.824;2023-10-13T14:32:11;28.20;30.80
21033;DHT22;10675;47.976;7.824;2023-10-13T14:34:45;28.10;31.20
21033;DHT22;10675;47.976;7.824;2023-10-13T14:37:14;28.10;31.20
21033;DHT22;10675;47.976;7.824;2023-10-13T14:39:40;28.10;30.80
21033;DHT22;10675;47.976;7.824;2023-10-13T14:42:05;28.10;30.00
21033;DHT22;10675;47.976;7.824;2023-10-13T14:44:35;28.10;29.90
21033;DHT22;10675;47.976;7.824;2023-10-13T14:47:02;28.20;30.10
21033;DHT22;10675;47.976;7.824;2023-10-13T14:49:27;28.20;30.00
21033;DHT22;10675;47.976;7.824;2023-10-13T14:51:53;28.20;30.30
21033;DHT22;10675;47.976;7.824;2023-10-13T14:54:21;28.20;29.70
21033;DHT22;10675;47.976;7.824;2023-10-13T14:56:59;28.20;31.20
21033;DHT22;10675;47.976;7.824;2023-10-13T14:59:24;28.10;31.30
21033;DHT22;10675;47.976;7.824;2023-10-13T15:01:50;28.10;31.10
21033;DHT22;10675;47.976;7.824;2023-10-13T15:04:15;28.10;31.50
21033;DHT22;10675;47.976;7.824;2023-10-13T15:06:41;28.10;32.30
21033;DHT22;10675;47.976;7.824;2023-10-13T15:09:06;28.00;32.00
21033;DHT22;10675;47.976;7.824;2023-10-13T15:11:36;28.00;31.90
21033;DHT22;10675;47.976;7.824;2023-10-13T15:14:05;28.00;32.10
21033;DHT22;10675;47.976;7.824;2023-10-13T15:16:34;28.00;32.10
21033;DHT22;10675;47.976;7.824;2023-10-13T15:19:00;27.90;33.60
21033;DHT22;10675;47.976;7.824;2023-10-13T15:21:27;27.80;34.70
21033;DHT22;10675;47.976;7.824;2023-10-13T15:24:02;27.80;32.30
21033;DHT22;10675;47.976;7.824;2023-10-13T15:26:40;27.70;32.40
21033;DHT22;10675;47.976;7.824;2023-10-13T15:29:10;27.70;33.20
21033;DHT22;10675;47.976;7.824;2023-10-13T15:31:38;27.60;33.50
21033;DHT22;10675;47.976;7.824;2023-10-13T15:34:11;27.50;36.20
21033;DHT22;10675;47.976;7.824;2023-10-13T15:36:43;27.40;35.00
21033;DHT22;10675;47.976;7.824;2023-10-13T15:39:12;27.40;33.60
21033;DHT22;10675;47.976;7.824;2023-10-13T15:41:41;27.40;34.10
21033;DHT22;10675;47.976;7.824;2023-10-13T15:44:13;27.40;34.60
21033;DHT22;10675;47.976;7.824;2023-10-13T15:46:39;27.30;35.50
21033;DHT22;10675;47.976;7.824;2023-10-13T15:49:05;27.20;35.50
21033;DHT22;10675;47.976;7.824;2023-10-13T15:51:35;27.20;34.90
21033;DHT22;10675;47.976;7.824;2023-10-13T15:54:04;27.20;34.40
21033;DHT22;10675;47.976;7.824;2023-10-13T15:56:32;27.30;34.90
21033;DHT22;10675;47.976;7.824;2023-10-13T15:59:01;27.20;34.60
21033;DHT22;10675;47.976;7.824;2023-10-13T16:01:27;27.20;35.00
21033;DHT22;10675;47.976;7.824;2023-10-13T16:03:53;27.00;36.40
21033;DHT22;10675;47.976;7.824;2023-10-13T16:06:19;26.80;39.20
21033;DHT22;10675;47.976;7.824;2023-10-13T16:08:45;26.50;40.40
21033;DHT22;10675;47.976;7.824;2023-10-13T16:11:12;26.30;40.40
21033;DHT22;10675;47.976;7.824;2023-10-13T16:13:48;25.90;41.30